sensor_id;sensor_type;location;lat;lon;timestamp;P1;durP1;ratioP1;P2;durP2;ratioP2
21675;SDS011;10999;51.332;9.458;2024-02-16T00:01:48;6.25;;;1.48;;
21675;SDS011;10999;51.332;9.458;2024-02-16T00:04:15;3.65;;;1.23;;
21675;SDS011;10999;51.332;9.458;2024-02-16T00:06:42;5.18;;;1.48;;
21675;SDS011;10999;51.332;9.458;2024-02-16T00:09:09;4.45;;;1.25;;
21675;SDS011;10999;51.332;9.458;2024-02-16T00:11:36;4.88;;;1.20;;
21675;SDS011;10999;51.332;9.458;2024-02-16T00:14:04;4.70;;;1.25;;
21675;SDS011;10999;51.332;9.458;2024-02-16T00:16:30;3.40;;;1.17;;
21675;SDS011;10999;51.332;9.458;2024-02-16T00:18:57;5.75;;;1.48;;
21675;SDS011;10999;51.332;9.458;2024-02-16T00:21:24;3.38;;;1.23;;
21675;SDS011;10999;51.332;9.458;2024-02-16T00:23:51;2.83;;;1.05;;
21675;SDS011;10999;51.332;9.458;2024-02-16T00:26:18;8.00;;;1.63;;
21675;SDS011;10999;51.332;9.458;2024-02-16T00:28:45;4.70;;;1.20;;
21675;SDS011;10999;51.332;9.458;2024-02-16T00:31:12;6.05;;;1.80;;
21675;SDS011;10999;51.332;9.458;2024-02-16T00:33:39;8.93;;;1.52;;
21675;SDS011;10999;51.332;9.458;2024-02-16T00:36:08;6.78;;;1.60;;
21675;SDS011;10999;51.332;9.458;2024-02-16T00:38:36;4.50;;;1.48;;
21675;SDS011;10999;51.332;9.458;2024-02-16T00:41:03;3.90;;;1.45;;
21675;SDS011;10999;51.332;9.458;2024-02-16T00:43:31;4.88;;;1.52;;
21675;SDS011;10999;51.332;9.458;2024-02-16T00:45:57;4.45;;;1.30;;
21675;SDS011;10999;51.332;9.458;2024-02-16T00:48:24;5.07;;;1.85;;
21675;SDS011;10999;51.332;9.458;2024-02-16T00:50:51;3.70;;;1.10;;
21675;SDS011;10999;51.332;9.458;2024-02-16T00:53:18;4.10;;;1.60;;
21675;SDS011;10999;51.332;9.458;2024-02-16T00:55:45;5.45;;;1.35;;
21675;SDS011;10999;51.332;9.458;2024-02-16T00:58:12;3.28;;;1.23;;
21675;SDS011;10999;51.332;9.458;2024-02-16T01:00:39;3.67;;;1.40;;
21675;SDS011;10999;51.332;9.458;2024-02-16T01:03:06;2.83;;;1.35;;
21675;SDS011;10999;51.332;9.458;2024-02-16T01:05:33;3.38;;;1.42;;
21675;SDS011;10999;51.332;9.458;2024-02-16T01:07:59;5.82;;;1.15;;
21675;SDS011;10999;51.332;9.458;2024-02-16T01:10:26;3.15;;;1.15;;
21675;SDS011;10999;51.332;9.458;2024-02-16T01:12:53;4.60;;;1.45;;
21675;SDS011;10999;51.332;9.458;2024-02-16T01:15:22;5.40;;;1.80;;
21675;SDS011;10999;51.332;9.458;2024-02-16T01:17:49;3.47;;;1.25;;
21675;SDS011;10999;51.332;9.458;2024-02-16T01:20:16;2.67;;;1.10;;
21675;SDS011;10999;51.332;9.458;2024-02-16T01:22:43;2.92;;;1.13;;
21675;SDS011;10999;51.332;9.458;2024-02-16T01:25:10;4.28;;;1.30;;
21675;SDS011;10999;51.332;9.458;2024-02-16T01:27:36;3.90;;;1.33;;
21675;SDS011;10999;51.332;9.458;2024-02-16T01:30:03;3.85;;;1.20;;
21675;SDS011;10999;51.332;9.458;2024-02-16T01:32:30;6.78;;;1.45;;
21675;SDS011;10999;51.332;9.458;2024-02-16T01:34:57;2.47;;;1.17;;
21675;SDS011;10999;51.332;9.458;2024-02-16T01:37:24;3.60;;;0.93;;
21675;SDS011;10999;51.332;9.458;2024-02-16T01:39:51;4.18;;;1.30;;
21675;SDS011;10999;51.332;9.458;2024-02-16T01:42:19;3.90;;;1.30;;
21675;SDS011;10999;51.332;9.458;2024-02-16T01:44:45;4.57;;;1.98;;
21675;SDS011;10999;51.332;9.458;2024-02-16T01:47:12;5.78;;;1.38;;
21675;SDS011;10999;51.332;9.458;2024-02-16T01:49:39;5.95;;;1.38;;
21675;SDS011;10999;51.332;9.458;2024-02-16T01:52:06;4.70;;;1.38;;
21675;SDS011;10999;51.332;9.458;2024-02-16T01:54:33;5.72;;;1.33;;
21675;SDS011;10999;51.332;9.458;2024-02-16T01:57:00;3.78;;;1.35;;
21675;SDS011;10999;51.332;9.458;2024-02-16T01:59:27;6.32;;;1.55;;
21675;SDS011;10999;51.332;9.458;2024-02-16T02:01:55;3.40;;;1.25;;
21675;SDS011;10999;51.332;9.458;2024-02-16T02:04:22;5.40;;;1.50;;
21675;SDS011;10999;51.332;9.458;2024-02-16T02:06:49;4.63;;;1.42;;
21675;SDS011;10999;51.332;9.458;2024-02-16T02:09:16;6.28;;;1.45;;
21675;SDS011;10999;51.332;9.458;2024-02-16T02:11:43;4.25;;;1.10;;
21675;SDS011;10999;51.332;9.458;2024-02-16T02:14:10;4.88;;;1.30;;
21675;SDS011;10999;51.332;9.458;2024-02-16T02:16:37;6.70;;;1.35;;
21675;SDS011;10999;51.332;9.458;2024-02-16T02:19:20;4.43;;;1.17;;
21675;SDS011;10999;51.332;9.458;2024-02-16T02:21:47;4.95;;;1.33;;
21675;SDS011;10999;51.332;9.458;2024-02-16T02:24:13;5.45;;;1.40;;
21675;SDS011;10999;51.332;9.458;2024-02-16T02:26:40;5.93;;;1.42;;
21675;SDS011;10999;51.332;9.458;2024-02-16T02:29:07;4.45;;;1.10;;
21675;SDS011;10999;51.332;9.458;2024-02-16T02:31:34;3.42;;;1.33;;
21675;SDS011;10999;51.332;9.458;2024-02-16T02:34:01;4.22;;;1.17;;
21675;SDS011;10999;51.332;9.458;2024-02-16T02:36:28;5.65;;;1.15;;
21675;SDS011;10999;51.332;9.458;2024-02-16T02:38:55;3.40;;;0.95;;
21675;SDS011;10999;51.332;9.458;2024-02-16T02:41:22;4.03;;;1.20;;
21675;SDS011;10999;51.332;9.458;2024-02-16T02:43:48;2.78;;;1.00;;
21675;SDS011;10999;51.332;9.458;2024-02-16T02:46:16;4.88;;;1.30;;
21675;SDS011;10999;51.332;9.458;2024-02-16T02:48:46;4.25;;;1.00;;
21675;SDS011;10999;51.332;9.458;2024-02-16T02:51:18;2.83;;;1.00;;
21675;SDS011;10999;51.332;9.458;2024-02-16T02:53:45;1.88;;;0.98;;
21675;SDS011;10999;51.332;9.458;2024-02-16T02:56:12;2.50;;;1.00;;
21675;SDS011;10999;51.332;9.458;2024-02-16T02:58:39;3.45;;;1.13;;
21675;SDS011;10999;51.332;9.458;2024-02-16T03:01:06;4.07;;;1.10;;
21675;SDS011;10999;51.332;9.458;2024-02-16T03:03:35;4.05;;;1.00;;
21675;SDS011;10999;51.332;9.458;2024-02-16T03:06:02;2.55;;;1.00;;
21675;SDS011;10999;51.332;9.458;2024-02-16T03:08:30;5.70;;;1.40;;
21675;SDS011;10999;51.332;9.458;2024-02-16T03:10:57;3.38;;;1.13;;
21675;SDS011;10999;51.332;9.458;2024-02-16T03:13:27;2.47;;;0.93;;
21675;SDS011;10999;51.332;9.458;2024-02-16T03:15:54;5.13;;;1.23;;
21675;SDS011;10999;51.332;9.458;2024-02-16T03:18:21;3.05;;;1.30;;
21675;SDS011;10999;51.332;9.458;2024-02-16T03:20:49;3.67;;;1.13;;
21675;SDS011;10999;51.332;9.458;2024-02-16T03:23:16;2.15;;;0.90;;
21675;SDS011;10999;51.332;9.458;2024-02-16T03:25:44;6.97;;;1.23;;
21675;SDS011;10999;51.332;9.458;2024-02-16T03:28:13;5.38;;;1.20;;
21675;SDS011;10999;51.332;9.458;2024-02-16T03:30:41;4.53;;;1.20;;
21675;SDS011;10999;51.332;9.458;2024-02-16T03:33:09;3.40;;;1.10;;
21675;SDS011;10999;51.332;9.458;2024-02-16T03:35:37;4.70;;;0.90;;
21675;SDS011;10999;51.332;9.458;2024-02-16T03:38:03;2.60;;;1.00;;
21675;SDS011;10999;51.332;9.458;2024-02-16T03:40:31;2.85;;;1.00;;
21675;SDS011;10999;51.332;9.458;2024-02-16T03:42:58;3.65;;;1.27;;
21675;SDS011;10999;51.332;9.458;2024-02-16T03:45:25;4.65;;;1.02;;
21675;SDS011;10999;51.332;9.458;2024-02-16T03:47:54;5.03;;;1.98;;
21675;SDS011;10999;51.332;9.458;2024-02-16T03:50:21;2.83;;;0.93;;
21675;SDS011;10999;51.332;9.458;2024-02-16T03:52:49;4.07;;;0.98;;
21675;SDS011;10999;51.332;9.458;2024-02-16T03:55:15;3.38;;;1.13;;
21675;SDS011;10999;51.332;9.458;2024-02-16T03:57:42;2.17;;;1.10;;
21675;SDS011;10999;51.332;9.458;2024-02-16T04:00:09;2.58;;;1.20;;
21675;SDS011;10999;51.332;9.458;2024-02-16T04:02:41;2.00;;;1.10;;
21675;SDS011;10999;51.332;9.458;2024-02-16T04:05:08;4.05;;;1.48;;
21675;SDS011;10999;51.332;9.458;2024-02-16T04:07:35;5.47;;;1.20;;
21675;SDS011;10999;51.332;9.458;2024-02-16T04:10:02;4.78;;;0.98;;
21675;SDS011;10999;51.332;9.458;2024-02-16T04:12:29;1.70;;;1.05;;
21675;SDS011;10999;51.332;9.458;2024-02-16T04:14:56;3.50;;;1.20;;
21675;SDS011;10999;51.332;9.458;2024-02-16T04:17:23;2.95;;;1.08;;
21675;SDS011;10999;51.332;9.458;2024-02-16T04:19:49;4.70;;;1.30;;
21675;SDS011;10999;51.332;9.458;2024-02-16T04:22:17;4.70;;;1.40;;
21675;SDS011;10999;51.332;9.458;2024-02-16T04:24:43;4.63;;;1.00;;
21675;SDS011;10999;51.332;9.458;2024-02-16T04:27:10;3.88;;;1.35;;
21675;SDS011;10999;51.332;9.458;2024-02-16T04:29:37;3.45;;;1.00;;
21675;SDS011;10999;51.332;9.458;2024-02-16T04:32:04;3.70;;;1.30;;
21675;SDS011;10999;51.332;9.458;2024-02-16T04:34:30;3.90;;;1.30;;
21675;SDS011;10999;51.332;9.458;2024-02-16T04:36:57;4.43;;;1.45;;
21675;SDS011;10999;51.332;9.458;2024-02-16T04:39:24;4.90;;;1.15;;
21675;SDS011;10999;51.332;9.458;2024-02-16T04:41:51;4.40;;;1.10;;
21675;SDS011;10999;51.332;9.458;2024-02-16T04:44:19;3.67;;;1.40;;
21675;SDS011;10999;51.332;9.458;2024-02-16T04:46:46;5.72;;;1.38;;
21675;SDS011;10999;51.332;9.458;2024-02-16T04:49:13;3.85;;;1.20;;
21675;SDS011;10999;51.332;9.458;2024-02-16T04:51:40;4.25;;;1.38;;
21675;SDS011;10999;51.332;9.458;2024-02-16T04:54:07;6.18;;;1.50;;
21675;SDS011;10999;51.332;9.458;2024-02-16T04:56:34;4.50;;;1.48;;
21675;SDS011;10999;51.332;9.458;2024-02-16T04:59:01;5.32;;;1.27;;
21675;SDS011;10999;51.332;9.458;2024-02-16T05:01:28;3.63;;;1.42;;
21675;SDS011;10999;51.332;9.458;2024-02-16T05:03:56;5.60;;;1.40;;
21675;SDS011;10999;51.332;9.458;2024-02-16T05:06:24;5.05;;;1.70;;
21675;SDS011;10999;51.332;9.458;2024-02-16T05:08:51;8.13;;;2.00;;
21675;SDS011;10999;51.332;9.458;2024-02-16T05:11:18;6.13;;;1.60;;
21675;SDS011;10999;51.332;9.458;2024-02-16T05:13:45;4.43;;;1.40;;
21675;SDS011;10999;51.332;9.458;2024-02-16T05:16:12;5.70;;;1.38;;
21675;SDS011;10999;51.332;9.458;2024-02-16T05:18:39;2.97;;;1.20;;
21675;SDS011;10999;51.332;9.458;2024-02-16T05:21:07;4.53;;;1.30;;
21675;SDS011;10999;51.332;9.458;2024-02-16T05:23:34;5.30;;;1.80;;
21675;SDS011;10999;51.332;9.458;2024-02-16T05:26:01;6.57;;;1.50;;
21675;SDS011;10999;51.332;9.458;2024-02-16T05:28:27;5.97;;;1.52;;
21675;SDS011;10999;51.332;9.458;2024-02-16T05:30:55;7.65;;;1.77;;
21675;SDS011;10999;51.332;9.458;2024-02-16T05:33:23;6.90;;;1.90;;
21675;SDS011;10999;51.332;9.458;2024-02-16T05:35:50;5.68;;;1.70;;
21675;SDS011;10999;51.332;9.458;2024-02-16T05:38:21;5.45;;;2.05;;
21675;SDS011;10999;51.332;9.458;2024-02-16T05:40:59;3.63;;;1.58;;
21675;SDS011;10999;51.332;9.458;2024-02-16T05:43:25;5.07;;;1.65;;
21675;SDS011;10999;51.332;9.458;2024-02-16T05:45:52;5.35;;;1.88;;
21675;SDS011;10999;51.332;9.458;2024-02-16T05:48:19;6.20;;;1.77;;
21675;SDS011;10999;51.332;9.458;2024-02-16T05:50:46;5.47;;;1.75;;
21675;SDS011;10999;51.332;9.458;2024-02-16T05:53:13;5.10;;;1.52;;
21675;SDS011;10999;51.332;9.458;2024-02-16T05:55:40;5.43;;;2.35;;
21675;SDS011;10999;51.332;9.458;2024-02-16T05:58:11;3.42;;;1.60;;
21675;SDS011;10999;51.332;9.458;2024-02-16T06:00:39;6.28;;;1.77;;
21675;SDS011;10999;51.332;9.458;2024-02-16T06:03:09;4.03;;;1.63;;
21675;SDS011;10999;51.332;9.458;2024-02-16T06:05:38;4.82;;;1.50;;
21675;SDS011;10999;51.332;9.458;2024-02-16T06:08:11;4.53;;;1.63;;
21675;SDS011;10999;51.332;9.458;2024-02-16T06:10:45;8.48;;;1.92;;
21675;SDS011;10999;51.332;9.458;2024-02-16T06:13:17;8.82;;;2.88;;
21675;SDS011;10999;51.332;9.458;2024-02-16T06:15:45;6.00;;;1.80;;
21675;SDS011;10999;51.332;9.458;2024-02-16T06:18:13;5.70;;;2.00;;
21675;SDS011;10999;51.332;9.458;2024-02-16T06:20:40;8.82;;;2.17;;
21675;SDS011;10999;51.332;9.458;2024-02-16T06:23:07;5.60;;;1.65;;
21675;SDS011;10999;51.332;9.458;2024-02-16T06:25:36;6.30;;;2.00;;
21675;SDS011;10999;51.332;9.458;2024-02-16T06:28:03;6.25;;;1.80;;
21675;SDS011;10999;51.332;9.458;2024-02-16T06:30:30;6.57;;;1.80;;
21675;SDS011;10999;51.332;9.458;2024-02-16T06:32:57;5.38;;;2.05;;
21675;SDS011;10999;51.332;9.458;2024-02-16T06:35:25;4.53;;;1.90;;
21675;SDS011;10999;51.332;9.458;2024-02-16T06:37:51;3.72;;;1.67;;
21675;SDS011;10999;51.332;9.458;2024-02-16T06:40:19;6.75;;;1.65;;
21675;SDS011;10999;51.332;9.458;2024-02-16T06:42:47;4.68;;;1.60;;
21675;SDS011;10999;51.332;9.458;2024-02-16T06:45:13;4.82;;;1.63;;
21675;SDS011;10999;51.332;9.458;2024-02-16T06:47:40;5.68;;;1.60;;
21675;SDS011;10999;51.332;9.458;2024-02-16T06:50:07;6.63;;;3.03;;
21675;SDS011;10999;51.332;9.458;2024-02-16T06:52:34;5.75;;;2.00;;
21675;SDS011;10999;51.332;9.458;2024-02-16T06:55:01;5.18;;;1.30;;
21675;SDS011;10999;51.332;9.458;2024-02-16T06:57:29;4.82;;;1.60;;
21675;SDS011;10999;51.332;9.458;2024-02-16T06:59:57;3.97;;;1.40;;
21675;SDS011;10999;51.332;9.458;2024-02-16T07:02:24;3.70;;;1.50;;
21675;SDS011;10999;51.332;9.458;2024-02-16T07:04:51;3.88;;;1.42;;
21675;SDS011;10999;51.332;9.458;2024-02-16T07:07:18;3.75;;;1.35;;
21675;SDS011;10999;51.332;9.458;2024-02-16T07:09:45;4.45;;;1.77;;
21675;SDS011;10999;51.332;9.458;2024-02-16T07:12:12;5.65;;;1.67;;
21675;SDS011;10999;51.332;9.458;2024-02-16T07:14:39;5.57;;;1.67;;
21675;SDS011;10999;51.332;9.458;2024-02-16T07:17:06;5.85;;;2.08;;
21675;SDS011;10999;51.332;9.458;2024-02-16T07:19:36;7.15;;;1.80;;
21675;SDS011;10999;51.332;9.458;2024-02-16T07:22:03;7.25;;;1.88;;
21675;SDS011;10999;51.332;9.458;2024-02-16T07:24:32;6.03;;;1.50;;
21675;SDS011;10999;51.332;9.458;2024-02-16T07:27:00;7.00;;;1.73;;
21675;SDS011;10999;51.332;9.458;2024-02-16T07:29:28;5.72;;;1.50;;
21675;SDS011;10999;51.332;9.458;2024-02-16T07:31:55;4.07;;;1.70;;
21675;SDS011;10999;51.332;9.458;2024-02-16T07:34:22;4.85;;;1.63;;
21675;SDS011;10999;51.332;9.458;2024-02-16T07:36:49;6.40;;;1.98;;
21675;SDS011;10999;51.332;9.458;2024-02-16T07:39:16;5.15;;;1.80;;
21675;SDS011;10999;51.332;9.458;2024-02-16T07:41:43;4.80;;;2.00;;
21675;SDS011;10999;51.332;9.458;2024-02-16T07:44:10;5.45;;;1.60;;
21675;SDS011;10999;51.332;9.458;2024-02-16T07:46:40;6.25;;;1.95;;
21675;SDS011;10999;51.332;9.458;2024-02-16T07:49:07;5.85;;;2.00;;
21675;SDS011;10999;51.332;9.458;2024-02-16T07:51:37;5.40;;;2.05;;
21675;SDS011;10999;51.332;9.458;2024-02-16T07:54:04;7.75;;;2.40;;
21675;SDS011;10999;51.332;9.458;2024-02-16T07:56:32;4.82;;;1.90;;
21675;SDS011;10999;51.332;9.458;2024-02-16T07:58:59;7.45;;;2.75;;
21675;SDS011;10999;51.332;9.458;2024-02-16T08:01:26;10.23;;;3.00;;
21675;SDS011;10999;51.332;9.458;2024-02-16T08:03:53;6.35;;;2.30;;
21675;SDS011;10999;51.332;9.458;2024-02-16T08:06:24;7.40;;;2.58;;
21675;SDS011;10999;51.332;9.458;2024-02-16T08:08:52;6.65;;;2.33;;
21675;SDS011;10999;51.332;9.458;2024-02-16T08:11:19;7.00;;;2.20;;
21675;SDS011;10999;51.332;9.458;2024-02-16T08:13:46;7.82;;;2.10;;
21675;SDS011;10999;51.332;9.458;2024-02-16T08:16:13;5.63;;;2.20;;
21675;SDS011;10999;51.332;9.458;2024-02-16T08:18:40;7.93;;;2.38;;
21675;SDS011;10999;51.332;9.458;2024-02-16T08:21:09;7.45;;;2.13;;
21675;SDS011;10999;51.332;9.458;2024-02-16T08:23:36;5.25;;;1.90;;
21675;SDS011;10999;51.332;9.458;2024-02-16T08:26:04;7.63;;;2.00;;
21675;SDS011;10999;51.332;9.458;2024-02-16T08:28:31;6.40;;;2.28;;
21675;SDS011;10999;51.332;9.458;2024-02-16T08:30:57;5.72;;;2.10;;
21675;SDS011;10999;51.332;9.458;2024-02-16T08:33:24;3.20;;;1.40;;
21675;SDS011;10999;51.332;9.458;2024-02-16T08:35:51;5.20;;;1.80;;
21675;SDS011;10999;51.332;9.458;2024-02-16T08:38:18;7.47;;;2.28;;
21675;SDS011;10999;51.332;9.458;2024-02-16T08:40:45;5.60;;;1.83;;
21675;SDS011;10999;51.332;9.458;2024-02-16T08:43:14;6.53;;;1.95;;
21675;SDS011;10999;51.332;9.458;2024-02-16T08:45:40;8.25;;;2.08;;
21675;SDS011;10999;51.332;9.458;2024-02-16T08:48:08;4.40;;;1.73;;
21675;SDS011;10999;51.332;9.458;2024-02-16T08:50:35;4.13;;;1.80;;
21675;SDS011;10999;51.332;9.458;2024-02-16T08:53:02;7.25;;;1.92;;
21675;SDS011;10999;51.332;9.458;2024-02-16T08:55:29;4.93;;;1.50;;
21675;SDS011;10999;51.332;9.458;2024-02-16T08:57:55;5.75;;;1.80;;
21675;SDS011;10999;51.332;9.458;2024-02-16T09:00:23;4.25;;;1.65;;
21675;SDS011;10999;51.332;9.458;2024-02-16T09:02:53;5.22;;;1.92;;
21675;SDS011;10999;51.332;9.458;2024-02-16T09:05:20;6.25;;;1.83;;
21675;SDS011;10999;51.332;9.458;2024-02-16T09:07:48;5.53;;;1.88;;
21675;SDS011;10999;51.332;9.458;2024-02-16T09:10:15;6.30;;;2.28;;
21675;SDS011;10999;51.332;9.458;2024-02-16T09:12:41;4.75;;;1.63;;
21675;SDS011;10999;51.332;9.458;2024-02-16T09:15:08;5.78;;;1.83;;
21675;SDS011;10999;51.332;9.458;2024-02-16T09:17:35;4.82;;;1.73;;
21675;SDS011;10999;51.332;9.458;2024-02-16T09:20:02;5.10;;;1.90;;
21675;SDS011;10999;51.332;9.458;2024-02-16T09:22:30;6.00;;;1.88;;
21675;SDS011;10999;51.332;9.458;2024-02-16T09:25:00;7.90;;;1.70;;
21675;SDS011;10999;51.332;9.458;2024-02-16T09:27:28;5.50;;;1.95;;
21675;SDS011;10999;51.332;9.458;2024-02-16T09:29:54;6.00;;;1.80;;
21675;SDS011;10999;51.332;9.458;2024-02-16T09:32:21;5.43;;;1.70;;
21675;SDS011;10999;51.332;9.458;2024-02-16T09:34:49;3.90;;;1.55;;
21675;SDS011;10999;51.332;9.458;2024-02-16T09:37:17;5.47;;;1.65;;
21675;SDS011;10999;51.332;9.458;2024-02-16T09:39:44;4.20;;;1.75;;
21675;SDS011;10999;51.332;9.458;2024-02-16T09:42:11;4.70;;;1.55;;
21675;SDS011;10999;51.332;9.458;2024-02-16T09:44:40;5.80;;;2.17;;
21675;SDS011;10999;51.332;9.458;2024-02-16T09:47:08;4.28;;;1.60;;
21675;SDS011;10999;51.332;9.458;2024-02-16T09:49:39;5.63;;;1.85;;
21675;SDS011;10999;51.332;9.458;2024-02-16T09:52:08;6.07;;;1.45;;
21675;SDS011;10999;51.332;9.458;2024-02-16T09:54:37;5.20;;;1.80;;
21675;SDS011;10999;51.332;9.458;2024-02-16T09:57:06;8.10;;;1.85;;
21675;SDS011;10999;51.332;9.458;2024-02-16T09:59:32;5.72;;;1.90;;
21675;SDS011;10999;51.332;9.458;2024-02-16T10:02:00;4.97;;;1.70;;
21675;SDS011;10999;51.332;9.458;2024-02-16T10:04:27;4.53;;;1.63;;
21675;SDS011;10999;51.332;9.458;2024-02-16T10:06:58;6.57;;;1.83;;
21675;SDS011;10999;51.332;9.458;2024-02-16T10:09:25;8.27;;;1.80;;
21675;SDS011;10999;51.332;9.458;2024-02-16T10:11:56;4.05;;;1.60;;
21675;SDS011;10999;51.332;9.458;2024-02-16T10:14:24;5.25;;;1.77;;
21675;SDS011;10999;51.332;9.458;2024-02-16T10:17:01;8.02;;;2.65;;
21675;SDS011;10999;51.332;9.458;2024-02-16T10:19:29;5.32;;;1.70;;
21675;SDS011;10999;51.332;9.458;2024-02-16T10:22:09;5.93;;;1.67;;
21675;SDS011;10999;51.332;9.458;2024-02-16T10:24:36;7.32;;;1.83;;
21675;SDS011;10999;51.332;9.458;2024-02-16T10:27:05;5.32;;;1.65;;
21675;SDS011;10999;51.332;9.458;2024-02-16T10:29:37;4.32;;;1.67;;
21675;SDS011;10999;51.332;9.458;2024-02-16T10:32:06;4.90;;;1.73;;
21675;SDS011;10999;51.332;9.458;2024-02-16T10:34:33;4.57;;;1.65;;
21675;SDS011;10999;51.332;9.458;2024-02-16T10:37:02;5.97;;;1.73;;
21675;SDS011;10999;51.332;9.458;2024-02-16T10:39:30;7.30;;;2.20;;
21675;SDS011;10999;51.332;9.458;2024-02-16T10:41:58;6.40;;;1.65;;
21675;SDS011;10999;51.332;9.458;2024-02-16T10:44:28;5.60;;;2.15;;
21675;SDS011;10999;51.332;9.458;2024-02-16T10:46:55;7.32;;;2.00;;
21675;SDS011;10999;51.332;9.458;2024-02-16T10:49:24;4.35;;;1.75;;
21675;SDS011;10999;51.332;9.458;2024-02-16T10:51:53;5.38;;;2.35;;
21675;SDS011;10999;51.332;9.458;2024-02-16T10:54:28;4.75;;;1.60;;
21675;SDS011;10999;51.332;9.458;2024-02-16T10:56:58;7.28;;;2.00;;
21675;SDS011;10999;51.332;9.458;2024-02-16T10:59:25;6.80;;;2.25;;
21675;SDS011;10999;51.332;9.458;2024-02-16T11:01:59;4.75;;;1.80;;
21675;SDS011;10999;51.332;9.458;2024-02-16T11:04:35;6.05;;;1.70;;
21675;SDS011;10999;51.332;9.458;2024-02-16T11:07:17;5.53;;;1.70;;
21675;SDS011;10999;51.332;9.458;2024-02-16T11:09:46;6.80;;;1.77;;
21675;SDS011;10999;51.332;9.458;2024-02-16T11:12:14;6.57;;;1.77;;
21675;SDS011;10999;51.332;9.458;2024-02-16T11:14:43;6.20;;;1.67;;
21675;SDS011;10999;51.332;9.458;2024-02-16T11:17:12;6.13;;;1.77;;
21675;SDS011;10999;51.332;9.458;2024-02-16T11:19:44;4.15;;;1.83;;
21675;SDS011;10999;51.332;9.458;2024-02-16T11:22:16;5.47;;;1.90;;
21675;SDS011;10999;51.332;9.458;2024-02-16T11:24:48;5.32;;;1.83;;
21675;SDS011;10999;51.332;9.458;2024-02-16T11:27:16;5.90;;;1.60;;
21675;SDS011;10999;51.332;9.458;2024-02-16T11:29:47;3.78;;;1.60;;
21675;SDS011;10999;51.332;9.458;2024-02-16T11:32:15;5.68;;;1.67;;
21675;SDS011;10999;51.332;9.458;2024-02-16T11:34:41;4.93;;;1.77;;
21675;SDS011;10999;51.332;9.458;2024-02-16T11:37:08;8.40;;;2.97;;
21675;SDS011;10999;51.332;9.458;2024-02-16T11:39:35;4.78;;;1.80;;
21675;SDS011;10999;51.332;9.458;2024-02-16T11:42:05;7.40;;;3.42;;
21675;SDS011;10999;51.332;9.458;2024-02-16T11:44:39;5.18;;;1.67;;
21675;SDS011;10999;51.332;9.458;2024-02-16T11:47:18;5.03;;;1.70;;
21675;SDS011;10999;51.332;9.458;2024-02-16T11:52:29;6.28;;;2.00;;
21675;SDS011;10999;51.332;9.458;2024-02-16T11:55:07;4.43;;;2.15;;
21675;SDS011;10999;51.332;9.458;2024-02-16T11:57:35;5.60;;;2.03;;
21675;SDS011;10999;51.332;9.458;2024-02-16T12:00:03;5.45;;;1.70;;
21675;SDS011;10999;51.332;9.458;2024-02-16T12:02:34;5.88;;;2.25;;
21675;SDS011;10999;51.332;9.458;2024-02-16T12:05:05;5.40;;;1.75;;
21675;SDS011;10999;51.332;9.458;2024-02-16T12:07:32;7.68;;;2.03;;
21675;SDS011;10999;51.332;9.458;2024-02-16T12:10:01;4.55;;;1.70;;
21675;SDS011;10999;51.332;9.458;2024-02-16T12:12:31;5.53;;;1.90;;
21675;SDS011;10999;51.332;9.458;2024-02-16T12:14:58;5.65;;;1.98;;
21675;SDS011;10999;51.332;9.458;2024-02-16T12:17:25;7.80;;;1.92;;
21675;SDS011;10999;51.332;9.458;2024-02-16T12:19:52;8.43;;;2.03;;
21675;SDS011;10999;51.332;9.458;2024-02-16T12:22:20;5.75;;;2.05;;
21675;SDS011;10999;51.332;9.458;2024-02-16T12:24:48;5.78;;;1.90;;
21675;SDS011;10999;51.332;9.458;2024-02-16T12:27:18;7.47;;;2.17;;
21675;SDS011;10999;51.332;9.458;2024-02-16T12:29:45;4.30;;;1.95;;
21675;SDS011;10999;51.332;9.458;2024-02-16T12:32:13;5.82;;;2.03;;
21675;SDS011;10999;51.332;9.458;2024-02-16T12:34:45;4.20;;;1.80;;
21675;SDS011;10999;51.332;9.458;2024-02-16T12:37:12;6.90;;;1.55;;
21675;SDS011;10999;51.332;9.458;2024-02-16T12:39:39;5.78;;;1.88;;
21675;SDS011;10999;51.332;9.458;2024-02-16T12:42:06;6.25;;;1.92;;
21675;SDS011;10999;51.332;9.458;2024-02-16T12:44:34;7.20;;;1.98;;
21675;SDS011;10999;51.332;9.458;2024-02-16T12:47:01;8.32;;;2.22;;
21675;SDS011;10999;51.332;9.458;2024-02-16T12:49:27;6.13;;;2.13;;
21675;SDS011;10999;51.332;9.458;2024-02-16T12:51:54;6.00;;;2.05;;
21675;SDS011;10999;51.332;9.458;2024-02-16T12:54:23;8.05;;;2.35;;
21675;SDS011;10999;51.332;9.458;2024-02-16T12:56:50;4.63;;;1.80;;
21675;SDS011;10999;51.332;9.458;2024-02-16T12:59:17;8.20;;;2.25;;
21675;SDS011;10999;51.332;9.458;2024-02-16T13:01:44;5.60;;;2.10;;
21675;SDS011;10999;51.332;9.458;2024-02-16T13:04:12;6.78;;;2.20;;
21675;SDS011;10999;51.332;9.458;2024-02-16T13:06:47;7.38;;;2.38;;
21675;SDS011;10999;51.332;9.458;2024-02-16T13:09:15;5.93;;;2.10;;
21675;SDS011;10999;51.332;9.458;2024-02-16T13:11:42;5.63;;;2.63;;
21675;SDS011;10999;51.332;9.458;2024-02-16T13:14:09;7.28;;;2.53;;
21675;SDS011;10999;51.332;9.458;2024-02-16T13:16:36;9.00;;;2.63;;
21675;SDS011;10999;51.332;9.458;2024-02-16T13:19:03;6.72;;;2.95;;
21675;SDS011;10999;51.332;9.458;2024-02-16T13:21:30;6.00;;;2.30;;
21675;SDS011;10999;51.332;9.458;2024-02-16T13:23:56;9.45;;;2.28;;
21675;SDS011;10999;51.332;9.458;2024-02-16T13:26:24;6.25;;;2.40;;
21675;SDS011;10999;51.332;9.458;2024-02-16T13:28:50;8.93;;;2.42;;
21675;SDS011;10999;51.332;9.458;2024-02-16T13:31:18;7.28;;;2.10;;
21675;SDS011;10999;51.332;9.458;2024-02-16T13:33:45;7.68;;;2.40;;
21675;SDS011;10999;51.332;9.458;2024-02-16T13:36:12;7.80;;;2.35;;
21675;SDS011;10999;51.332;9.458;2024-02-16T13:38:39;9.35;;;2.65;;
21675;SDS011;10999;51.332;9.458;2024-02-16T13:41:05;8.07;;;2.60;;
21675;SDS011;10999;51.332;9.458;2024-02-16T13:43:32;6.75;;;2.45;;
21675;SDS011;10999;51.332;9.458;2024-02-16T13:45:59;7.93;;;2.67;;
21675;SDS011;10999;51.332;9.458;2024-02-16T13:48:26;6.13;;;2.35;;
21675;SDS011;10999;51.332;9.458;2024-02-16T13:50:54;5.90;;;2.42;;
21675;SDS011;10999;51.332;9.458;2024-02-16T13:53:22;7.68;;;2.47;;
21675;SDS011;10999;51.332;9.458;2024-02-16T13:55:49;6.85;;;2.70;;
21675;SDS011;10999;51.332;9.458;2024-02-16T13:58:16;7.57;;;2.70;;
21675;SDS011;10999;51.332;9.458;2024-02-16T14:00:43;8.07;;;2.60;;
21675;SDS011;10999;51.332;9.458;2024-02-16T14:03:11;9.55;;;2.50;;
21675;SDS011;10999;51.332;9.458;2024-02-16T14:05:40;6.95;;;2.28;;
21675;SDS011;10999;51.332;9.458;2024-02-16T14:08:10;6.63;;;2.30;;
21675;SDS011;10999;51.332;9.458;2024-02-16T14:10:39;7.50;;;2.45;;
21675;SDS011;10999;51.332;9.458;2024-02-16T14:13:05;9.15;;;2.50;;
21675;SDS011;10999;51.332;9.458;2024-02-16T14:15:32;7.65;;;2.25;;
21675;SDS011;10999;51.332;9.458;2024-02-16T14:17:59;5.57;;;2.17;;
21675;SDS011;10999;51.332;9.458;2024-02-16T14:20:36;6.15;;;2.58;;
21675;SDS011;10999;51.332;9.458;2024-02-16T14:23:04;7.20;;;2.60;;
21675;SDS011;10999;51.332;9.458;2024-02-16T14:25:33;6.93;;;3.13;;
21675;SDS011;10999;51.332;9.458;2024-02-16T14:28:03;7.30;;;2.63;;
21675;SDS011;10999;51.332;9.458;2024-02-16T14:30:30;8.57;;;2.60;;
21675;SDS011;10999;51.332;9.458;2024-02-16T14:32:59;7.70;;;2.80;;
21675;SDS011;10999;51.332;9.458;2024-02-16T14:35:26;8.57;;;3.10;;
21675;SDS011;10999;51.332;9.458;2024-02-16T14:37:53;8.45;;;3.08;;
21675;SDS011;10999;51.332;9.458;2024-02-16T14:40:19;6.82;;;2.50;;
21675;SDS011;10999;51.332;9.458;2024-02-16T14:42:46;6.63;;;2.45;;
21675;SDS011;10999;51.332;9.458;2024-02-16T14:45:13;9.27;;;2.80;;
21675;SDS011;10999;51.332;9.458;2024-02-16T14:47:47;7.22;;;2.42;;
21675;SDS011;10999;51.332;9.458;2024-02-16T14:50:14;7.85;;;2.50;;
21675;SDS011;10999;51.332;9.458;2024-02-16T14:52:41;7.15;;;2.35;;
21675;SDS011;10999;51.332;9.458;2024-02-16T14:55:08;7.78;;;2.65;;